SAAR/ROS METAR and TAF weather

Enter ICAO airport designator
Station Type Date Time Source
SAAR METAR 2018/12/17 16:00 UTC NOAA

SAAR 171600Z 09010KT 9999 BKN020 OVC200 25/21 Q1011


Station Type Date Time Source
SAAR Decoded METAR 2018/12/17 16:00 UTC NOAA

Rosario Aerodrome, Argentina (SAAR) 32-55S 060-47W 25M
Dec 17, 2018 - 11:00 AM EST / 2018.12.17 1600 UTC
Wind: from the E (090 degrees) at 12 MPH (10 KT):0
Visibility: greater than 7 mile(s):0
Sky conditions: overcast
Temperature: 77 F (25 C)
Dew Point: 69 F (21 C)
Relative Humidity: 78%
Pressure (altimeter): 29.85 in. Hg (1011 hPa)
ob: SAAR 171600Z 09010KT 9999 BKN020 OVC200 25/21 Q1011
cycle: 16

Station Type Date Time Source
SAAR TAF 2018/12/17 12:18 UTC NOAA

TAF TAF SAAR 171100Z 1712/1812 18015KT 7000 TSRA SCT015 FEW045CB OVC045 TX27/1718Z TN17/1809Z
BECMG 1713/1715 8000 -RA SCT030 BKN040 PROB30
TEMPO 1718/1722 15015KT 7000 SHRA SCT025 FEW040CB OVC050
BECMG 15015KT 9999 BKN030
BECMG 15010KT 6000 BKN010


Example: see airport list